Time;durP1;ratioP1;P1;durP2;ratioP2;P2;SDS_P1;SDS_P2;PMS_P1;PMS_P2;Temp;Humidity;BMP_temperature;BMP_pressure;BME280_temperature;BME280_humidity;BME280_pressure;Samples;Min_cycle;Max_cycle;Signal;HPM_P1;HPM_P2
2023/10/19 00:02:41;;;;;;;23.17;18.65;;;;;;;-145.67;100.00;66521.78;5091668;22;20467;-89
2023/10/19 00:05:13;;;;;;;22.80;18.02;;;;;;;-145.67;100.00;66521.78;5037971;28;20044;-90
2023/10/19 00:07:39;;;;;;;23.98;18.83;;;;;;;-145.67;100.00;66521.78;5022205;28;20043;-88
2023/10/19 00:10:04;;;;;;;23.45;18.42;;;;;;;-145.67;100.00;66521.78;5037713;28;20383;-89
2023/10/19 00:12:30;;;;;;;25.98;19.27;;;;;;;-145.67;100.00;66521.78;5037538;28;20159;-90
2023/10/19 00:14:56;;;;;;;25.42;19.17;;;;;;;-145.67;100.00;66521.78;5020598;28;20028;-88
2023/10/19 00:17:21;;;;;;;26.67;20.73;;;;;;;-145.67;100.00;66521.78;5037350;28;20045;-88
2023/10/19 00:22:35;;;;;;;29.05;20.73;;;;;;;-145.67;100.00;66521.78;5040460;28;20060;-89
2023/10/19 00:25:03;;;;;;;26.13;20.42;;;;;;;-145.67;100.00;66521.78;5038640;28;20116;-88
2023/10/19 00:27:29;;;;;;;26.25;19.60;;;;;;;-145.67;100.00;66521.78;5021623;28;20033;-88
2023/10/19 00:30:05;;;;;;;26.73;19.92;;;;;;;-145.67;100.00;66521.78;5021190;28;20029;-89
2023/10/19 00:32:31;;;;;;;26.88;20.50;;;;;;;-145.67;100.00;66521.78;5055279;28;20028;-88
2023/10/19 00:34:56;;;;;;;25.98;20.02;;;;;;;-145.67;100.00;66521.78;5037121;28;20035;-88
2023/10/19 00:37:32;;;;;;;28.10;22.55;;;;;;;-145.67;100.00;66521.78;5037803;28;20033;-89
2023/10/19 00:40:14;;;;;;;28.83;22.17;;;;;;;-145.67;100.00;66521.78;5038824;28;20039;-88
2023/10/19 00:42:45;;;;;;;26.63;20.80;;;;;;;-145.67;100.00;66521.78;5039470;28;20060;-88
2023/10/19 00:45:13;;;;;;;29.20;21.48;;;;;;;-145.67;100.00;66521.78;5036600;28;20032;-88
2023/10/19 00:47:42;;;;;;;31.85;23.15;;;;;;;-145.67;100.00;66521.78;5020719;28;20029;-90
2023/10/19 00:50:17;;;;;;;27.90;21.42;;;;;;;-145.67;100.00;66521.78;5037575;28;20025;-88
2023/10/19 00:52:49;;;;;;;31.77;24.58;;;;;;;-145.67;100.00;66521.78;5021670;28;20136;-90
2023/10/19 00:55:18;;;;;;;29.92;22.63;;;;;;;-145.67;100.00;66521.78;5038749;28;20071;-90
2023/10/19 00:57:49;;;;;;;32.05;23.75;;;;;;;-145.67;100.00;66521.78;5021155;28;20036;-90
2023/10/19 01:00:34;;;;;;;30.98;22.48;;;;;;;-145.67;100.00;66521.78;5055295;28;20137;-89
2023/10/19 01:03:00;;;;;;;28.45;21.33;;;;;;;-145.67;100.00;66521.78;5057091;28;20070;-89
2023/10/19 01:05:35;;;;;;;27.35;20.33;;;;;;;-145.67;100.00;66521.78;5057639;28;20032;-91
2023/10/19 01:08:05;;;;;;;27.35;21.98;;;;;;;-145.67;100.00;66521.78;5074809;28;20028;-90
2023/10/19 01:10:31;;;;;;;33.13;24.67;;;;;;;-145.67;100.00;66521.78;5040667;28;20089;-90
2023/10/19 01:12:59;;;;;;;29.35;22.60;;;;;;;-145.67;100.00;66521.78;5074613;28;20037;-90
2023/10/19 01:15:41;;;;;;;;;;;;;;;;;;;;;
2023/10/19 01:18:10;;;;;;;29.92;22.85;;;;;;;-145.67;100.00;66521.78;5074553;28;20072;-91
2023/10/19 01:20:50;;;;;;;33.05;24.45;;;;;;;-145.67;100.00;66521.78;5040846;28;20029;-92
2023/10/19 01:23:49;;;;;;;33.60;25.92;;;;;;;-145.67;100.00;66521.78;5074825;28;20456;-92
2023/10/19 01:26:08;;;;;;;33.17;24.80;;;;;;;-145.67;100.00;66521.78;5071718;28;20051;-91
2023/10/19 01:33:55;;;;;;;47.28;34.67;;;;;;;-145.67;100.00;66521.78;5058839;28;20119;-91
2023/10/19 01:36:25;;;;;;;41.17;31.30;;;;;;;-145.67;100.00;66521.78;5039489;28;20035;-90
2023/10/19 01:38:55;;;;;;;40.85;30.92;;;;;;;-145.67;100.00;66521.78;5039471;28;20024;-89
2023/10/19 01:41:23;;;;;;;37.10;28.73;;;;;;;-145.67;100.00;66521.78;5056568;28;20032;-92
2023/10/19 01:43:54;;;;;;;37.55;26.17;;;;;;;-145.67;100.00;66521.78;5056839;28;20069;-91
2023/10/19 01:46:33;;;;;;;42.15;28.80;;;;;;;-145.67;100.00;66521.78;5056290;28;20048;-91
2023/10/19 01:49:03;;;;;;;35.97;26.38;;;;;;;-145.67;100.00;66521.78;5042284;28;20086;-92
2023/10/19 01:51:37;;;;;;;41.13;29.08;;;;;;;-145.67;100.00;66521.78;5056054;28;20078;-89
2023/10/19 01:54:05;;;;;;;48.05;32.40;;;;;;;-145.67;100.00;66521.78;5056366;28;20048;-91
2023/10/19 01:56:31;;;;;;;46.40;32.63;;;;;;;-145.67;100.00;66521.78;5056276;28;20025;-90
2023/10/19 01:58:58;;;;;;;45.38;33.47;;;;;;;-145.67;100.00;66521.78;5039323;28;20078;-90
2023/10/19 02:03:55;;;;;;;45.60;33.85;;;;;;;-145.67;100.00;66521.78;5056941;28;20059;-89
2023/10/19 02:06:26;;;;;;;45.30;33.58;;;;;;;-145.67;100.00;66521.78;5055866;28;20035;-90
2023/10/19 02:11:46;;;;;;;41.85;31.05;;;;;;;-145.67;100.00;66521.78;5057144;28;20028;-89
2023/10/19 02:14:14;;;;;;;48.22;36.22;;;;;;;-145.67;100.00;66521.78;5040571;28;20051;-89
2023/10/19 02:16:42;;;;;;;47.42;34.38;;;;;;;-145.67;100.00;66521.78;5038257;28;20069;-90
2023/10/19 02:19:08;;;;;;;40.17;29.65;;;;;;;-145.67;100.00;66521.78;5031648;28;20391;-89
2023/10/19 02:21:40;;;;;;;45.30;32.53;;;;;;;-145.67;100.00;66521.78;5015916;28;20021;-90
2023/10/19 02:24:07;;;;;;;42.58;31.27;;;;;;;-145.67;100.00;66521.78;5016016;28;20025;-90
2023/10/19 02:26:33;;;;;;;36.00;25.58;;;;;;;-145.67;100.00;66521.78;5010496;28;20040;-91
2023/10/19 02:28:59;;;;;;;36.38;25.08;;;;;;;-145.67;100.00;66521.78;5038736;28;20121;-89
2023/10/19 02:31:25;;;;;;;36.65;27.38;;;;;;;-145.67;100.00;66521.78;5039507;28;20016;-89
2023/10/19 02:33:58;;;;;;;44.28;27.88;;;;;;;-145.67;100.00;66521.78;5059206;28;20086;-90
2023/10/19 02:36:28;;;;;;;37.83;24.77;;;;;;;-145.67;100.00;66521.78;5057492;28;20046;-90
2023/10/19 02:38:53;;;;;;;40.47;28.13;;;;;;;-145.67;100.00;66521.78;5071561;28;20012;-89
2023/10/19 02:41:21;;;;;;;39.55;28.42;;;;;;;-145.67;100.00;66521.78;5074363;28;20052;-89
2023/10/19 02:43:51;;;;;;;41.38;28.60;;;;;;;-145.67;100.00;66521.78;5042833;28;20032;-89
2023/10/19 02:46:17;;;;;;;37.85;27.50;;;;;;;-145.67;100.00;66521.78;5070104;28;20040;-90
2023/10/19 02:48:47;;;;;;;43.20;28.75;;;;;;;-145.67;100.00;66521.78;5018740;28;20029;-89
2023/10/19 02:51:13;;;;;;;42.78;28.00;;;;;;;-145.67;100.00;66521.78;5034930;28;20029;-88
2023/10/19 02:53:42;;;;;;;39.50;27.90;;;;;;;-145.67;100.00;66521.78;5034802;28;20148;-88
2023/10/19 02:56:16;;;;;;;62.42;40.08;;;;;;;-145.67;100.00;66521.78;5034615;28;20514;-89
2023/10/19 02:58:43;;;;;;;87.35;49.50;;;;;;;-145.67;100.00;66521.78;5018241;28;20063;-88
2023/10/19 03:01:17;;;;;;;107.40;60.90;;;;;;;-145.67;100.00;66521.78;5017969;28;20040;-90
2023/10/19 03:03:43;;;;;;;129.43;68.32;;;;;;;-145.67;100.00;66521.78;5035280;28;20060;-90
2023/10/19 03:06:09;;;;;;;96.30;54.53;;;;;;;-145.67;100.00;66521.78;5051685;28;20472;-89
2023/10/19 03:08:35;;;;;;;59.90;39.85;;;;;;;-145.67;100.00;66521.78;5052323;28;20116;-90
2023/10/19 03:11:04;;;;;;;67.28;39.17;;;;;;;-145.67;100.00;66521.78;5056726;28;20134;-90
2023/10/19 03:13:32;;;;;;;71.20;40.05;;;;;;;-145.67;100.00;66521.78;5059157;28;20116;-89
2023/10/19 03:15:59;;;;;;;66.88;41.72;;;;;;;-145.67;100.00;66521.78;5055368;28;20067;-90
2023/10/19 03:18:25;;;;;;;66.63;40.13;;;;;;;-145.67;100.00;66521.78;5057280;28;20025;-90
2023/10/19 03:20:51;;;;;;;93.00;48.97;;;;;;;-145.67;100.00;66521.78;5077204;28;20118;-89
2023/10/19 03:23:17;;;;;;;117.55;62.92;;;;;;;-145.67;100.00;66521.78;5055522;28;20048;-89
2023/10/19 03:28:26;;;;;;;91.45;49.67;;;;;;;-145.67;100.00;66521.78;5074621;28;20029;-89
2023/10/19 03:30:55;;;;;;;83.00;43.22;;;;;;;-145.67;100.00;66521.78;5055263;28;20051;-90
2023/10/19 03:33:20;;;;;;;64.78;37.72;;;;;;;-145.67;100.00;66521.78;5039951;28;20033;-90
2023/10/19 03:35:47;;;;;;;75.80;41.85;;;;;;;-145.67;100.00;66521.78;5038943;28;20020;-89
2023/10/19 03:38:16;;;;;;;64.90;38.63;;;;;;;-145.67;100.00;66521.78;5055282;28;20478;-90
2023/10/19 03:40:51;;;;;;;73.00;41.40;;;;;;;-145.67;100.00;66521.78;5040023;28;20059;-89
2023/10/19 03:43:23;;;;;;;80.05;41.83;;;;;;;-145.67;100.00;66521.78;5055420;28;20117;-90
2023/10/19 03:45:51;;;;;;;;;;;;;;;-145.67;100.00;66521.78;5043731;28;20106;-90
2023/10/19 03:48:24;;;;;;;67.45;39.22;;;;;;;-145.67;100.00;66521.78;5053073;28;19909;-89
2023/10/19 03:50:51;;;;;;;76.75;37.63;;;;;;;-145.67;100.00;66521.78;5059195;28;20103;-89
2023/10/19 03:53:17;;;;;;;59.65;33.88;;;;;;;-145.67;100.00;66521.78;5054888;28;20463;-89
2023/10/19 03:55:43;;;;;;;41.17;24.40;;;;;;;-145.67;100.00;66521.78;5054793;28;20112;-88
2023/10/19 03:58:11;;;;;;;33.50;18.83;;;;;;;-145.67;100.00;66521.78;5055774;28;20039;-88
2023/10/19 04:00:37;;;;;;;28.30;17.33;;;;;;;-145.67;100.00;66521.78;5057182;28;20029;-88
2023/10/19 04:03:03;;;;;;;33.00;18.67;;;;;;;-145.67;100.00;66521.78;5041659;28;20093;-90
2023/10/19 04:05:28;;;;;;;42.47;24.08;;;;;;;-145.67;100.00;66521.78;5039137;28;20437;-89
2023/10/19 04:08:00;;;;;;;44.22;27.33;;;;;;;-145.67;100.00;66521.78;5022087;28;20616;-89
2023/10/19 04:13:01;;;;;;;59.50;31.77;;;;;;;-145.67;100.00;66521.78;5039675;28;20021;-88
2023/10/19 04:15:29;;;;;;;61.20;30.88;;;;;;;-145.67;100.00;66521.78;5021641;28;20021;-89
2023/10/19 04:17:55;;;;;;;72.22;36.78;;;;;;;-145.67;100.00;66521.78;5038776;28;20021;-89
2023/10/19 04:22:53;;;;;;;79.80;35.58;;;;;;;-145.67;100.00;66521.78;5058868;28;20040;-89
2023/10/19 04:25:18;;;;;;;66.50;30.38;;;;;;;-145.67;100.00;66521.78;5058338;28;20155;-88
2023/10/19 04:27:45;;;;;;;69.22;31.70;;;;;;;-145.67;100.00;66521.78;5057555;28;20444;-89
2023/10/19 04:30:27;;;;;;;56.60;25.83;;;;;;;-145.67;100.00;66521.78;5041191;28;20107;-89
2023/10/19 04:32:53;;;;;;;75.25;31.60;;;;;;;-145.67;100.00;66521.78;5059712;28;20033;-90
2023/10/19 04:35:22;;;;;;;67.95;29.77;;;;;;;-145.67;100.00;66521.78;5020895;28;20044;-90
2023/10/19 04:37:50;;;;;;;62.38;28.58;;;;;;;-145.67;100.00;66521.78;5021274;28;20455;-90
2023/10/19 04:40:16;;;;;;;66.00;28.23;;;;;;;-145.67;100.00;66521.78;5037660;28;20658;-91
2023/10/19 04:42:41;;;;;;;62.58;29.17;;;;;;;-145.67;100.00;66521.78;5021280;28;20145;-90
2023/10/19 04:45:07;;;;;;;38.72;16.17;;;;;;;-145.67;100.00;66521.78;5037791;28;20103;-91
2023/10/19 04:47:37;;;;;;;52.13;19.67;;;;;;;-145.67;100.00;66521.78;5021228;28;20028;-90
2023/10/19 04:50:02;;;;;;;56.40;25.42;;;;;;;-145.67;100.00;66521.78;5021358;28;20086;-89
2023/10/19 04:52:29;;;;;;;57.22;25.52;;;;;;;-145.67;100.00;66521.78;5037810;28;20025;-90
2023/10/19 04:54:54;;;;;;;60.72;28.85;;;;;;;-145.67;100.00;66521.78;5055036;28;20448;-90
2023/10/19 04:57:23;;;;;;;56.90;26.95;;;;;;;-145.67;100.00;66521.78;5036968;28;20036;-90
2023/10/19 04:59:49;;;;;;;55.80;24.65;;;;;;;-145.67;100.00;66521.78;5037591;28;20044;-90
2023/10/19 05:02:15;;;;;;;50.88;19.73;;;;;;;-145.67;100.00;66521.78;5020629;28;20033;-91
2023/10/19 05:04:41;;;;;;;47.60;18.25;;;;;;;-145.67;100.00;66521.78;5054544;28;20099;-90
2023/10/19 05:07:11;;;;;;;43.15;15.27;;;;;;;-145.67;100.00;66521.78;5053579;28;20060;-90
2023/10/19 05:09:39;;;;;;;30.52;13.57;;;;;;;-145.67;100.00;66521.78;5053173;28;20090;-90
2023/10/19 05:12:09;;;;;;;32.85;11.27;;;;;;;-145.67;100.00;66521.78;5037062;28;20029;-89
2023/10/19 05:14:36;;;;;;;28.23;11.85;;;;;;;-145.67;100.00;66521.78;5053304;28;20025;-89
2023/10/19 05:17:05;;;;;;;29.13;12.23;;;;;;;-145.67;100.00;66521.78;5042383;28;20024;-89
2023/10/19 05:19:34;;;;;;;32.45;13.55;;;;;;;-145.67;100.00;66521.78;5063521;28;20021;-89
2023/10/19 05:22:00;;;;;;;23.67;10.05;;;;;;;-145.67;100.00;66521.78;5074773;28;20035;-90
2023/10/19 05:24:27;;;;;;;17.23;6.97;;;;;;;-145.67;100.00;66521.78;5038000;28;20527;-90
2023/10/19 05:26:53;;;;;;;19.33;7.25;;;;;;;-145.67;100.00;66521.78;5036591;28;20502;-90
2023/10/19 05:29:19;;;;;;;24.05;7.25;;;;;;;-145.67;100.00;66521.78;5036825;28;20029;-91
2023/10/19 05:31:45;;;;;;;31.35;11.75;;;;;;;-145.67;100.00;66521.78;5020014;28;20020;-90
2023/10/19 05:34:10;;;;;;;24.00;12.05;;;;;;;-145.67;100.00;66521.78;5019735;28;20491;-90
2023/10/19 05:36:36;;;;;;;21.55;9.48;;;;;;;-145.67;100.00;66521.78;5020024;28;20033;-91
2023/10/19 05:39:03;;;;;;;23.55;9.82;;;;;;;-145.67;100.00;66521.78;5036633;28;20479;-90
2023/10/19 05:41:31;;;;;;;23.00;8.60;;;;;;;-145.67;100.00;66521.78;5020115;28;20032;-90
2023/10/19 05:43:57;;;;;;;19.58;8.27;;;;;;;-145.67;100.00;66521.78;5036321;28;20021;-90
2023/10/19 05:46:24;;;;;;;18.35;7.03;;;;;;;-145.67;100.00;66521.78;5036365;28;20033;-91
2023/10/19 05:48:51;;;;;;;29.05;13.38;;;;;;;-145.67;100.00;66521.78;5036413;28;20025;-91
2023/10/19 05:51:17;;;;;;;27.13;11.52;;;;;;;-145.67;100.00;66521.78;5044613;28;20037;-91
2023/10/19 05:53:44;;;;;;;24.10;10.15;;;;;;;-145.67;100.00;66521.78;5029904;28;20036;-91
2023/10/19 05:56:12;;;;;;;22.00;10.00;;;;;;;-145.67;100.00;66521.78;5035843;28;20079;-90
2023/10/19 05:58:38;;;;;;;22.13;10.95;;;;;;;-145.67;100.00;66521.78;5035990;28;20421;-90
2023/10/19 06:01:04;;;;;;;23.75;9.73;;;;;;;-145.67;100.00;66521.78;5025999;28;20024;-91
2023/10/19 06:03:30;;;;;;;18.10;6.55;;;;;;;-145.67;100.00;66521.78;5074825;28;20044;-90
2023/10/19 06:05:56;;;;;;;21.83;7.60;;;;;;;-145.67;100.00;66521.78;5059492;28;20027;-91
2023/10/19 06:08:22;;;;;;;29.48;10.48;;;;;;;-145.67;100.00;66521.78;5075956;28;20032;-91
2023/10/19 06:10:52;;;;;;;30.15;10.45;;;;;;;-145.67;100.00;66521.78;5059650;28;20032;-90
2023/10/19 06:13:18;;;;;;;36.85;12.38;;;;;;;-145.67;100.00;66521.78;5079829;28;20106;-91
2023/10/19 06:15:43;;;;;;;50.42;14.57;;;;;;;-145.67;100.00;66521.78;5047623;28;20067;-92
2023/10/19 06:18:10;;;;;;;34.30;12.52;;;;;;;-145.67;100.00;66521.78;5078639;28;20080;-92
2023/10/19 06:20:36;;;;;;;39.05;13.75;;;;;;;-145.67;100.00;66521.78;5046725;28;20107;-91
2023/10/19 06:23:05;;;;;;;38.72;13.52;;;;;;;-145.67;100.00;66521.78;5031315;28;20033;-91
2023/10/19 06:25:34;;;;;;;37.05;12.90;;;;;;;-145.67;100.00;66521.78;5030387;28;20032;-91
2023/10/19 06:28:01;;;;;;;53.63;16.88;;;;;;;-145.67;100.00;66521.78;5039654;28;20107;-92
2023/10/19 06:30:27;;;;;;;51.55;16.85;;;;;;;-145.67;100.00;66521.78;5039922;28;20024;-92
2023/10/19 06:32:54;;;;;;;32.40;9.75;;;;;;;-145.67;100.00;66521.78;5075744;28;20062;-92
2023/10/19 06:35:21;;;;;;;21.42;6.55;;;;;;;-145.67;100.00;66521.78;5075353;28;20020;-90
2023/10/19 06:37:47;;;;;;;21.83;5.88;;;;;;;-145.67;100.00;66521.78;5058314;28;20024;-91
2023/10/19 06:40:15;;;;;;;20.65;6.53;;;;;;;-145.67;100.00;66521.78;5075118;28;20074;-93
2023/10/19 06:42:42;;;;;;;25.73;9.13;;;;;;;-145.67;100.00;66521.78;5059163;28;20085;-92
2023/10/19 06:45:09;;;;;;;41.47;12.93;;;;;;;-145.67;100.00;66521.78;5057948;28;20129;-91
2023/10/19 06:47:37;;;;;;;40.97;13.30;;;;;;;-145.67;100.00;66521.78;5058924;28;20032;-90
2023/10/19 06:50:09;;;;;;;52.63;16.52;;;;;;;-145.67;100.00;66521.78;5040014;28;20025;-90
2023/10/19 06:52:36;;;;;;;44.78;14.77;;;;;;;-145.67;100.00;66521.78;5048268;28;20056;-90
2023/10/19 06:58:19;;;;;;;43.03;14.30;;;;;;;-145.67;100.00;66521.78;5008699;28;20175;-93
2023/10/19 07:00:56;;;;;;;37.22;13.43;;;;;;;-145.67;100.00;66521.78;5023048;28;20029;-91
2023/10/19 07:03:28;;;;;;;38.42;12.70;;;;;;;-145.67;100.00;66521.78;5037046;28;20021;-92
2023/10/19 07:05:58;;;;;;;39.63;14.18;;;;;;;-145.67;100.00;66521.78;5057905;28;20095;-93
2023/10/19 07:08:27;;;;;;;38.80;13.95;;;;;;;-145.67;100.00;66521.78;5063009;28;20017;-91
2023/10/19 07:11:13;;;;;;;38.15;12.13;;;;;;;-145.67;100.00;66521.78;5075251;28;20101;-90
2023/10/19 07:13:58;;;;;;;32.92;12.50;;;;;;;-145.67;100.00;66521.78;5068288;28;20490;-91
2023/10/19 07:16:24;;;;;;;30.83;10.30;;;;;;;-145.67;100.00;66521.78;5077486;28;20035;-93
2023/10/19 07:18:55;;;;;;;33.97;10.75;;;;;;;-145.67;100.00;66521.78;5059838;28;20024;-94
2023/10/19 07:21:24;;;;;;;33.10;13.93;;;;;;;-145.67;100.00;66521.78;5064943;28;20551;-92
2023/10/19 07:24:05;;;;;;;35.38;12.65;;;;;;;-145.67;100.00;66521.78;5042037;28;20619;-94
2023/10/19 07:26:51;;;;;;;33.75;11.98;;;;;;;-145.67;100.00;66521.78;5057796;28;20032;-93
2023/10/19 07:29:18;;;;;;;38.63;13.60;;;;;;;-145.67;100.00;66521.78;5061865;28;20028;-92
2023/10/19 11:53:59;;;;;;;19.33;4.68;;;;;;;-145.67;100.00;66521.78;5989998;22;20079;-94
2023/10/19 11:56:25;;;;;;;15.20;5.53;;;;;;;-145.67;100.00;66521.78;5078965;28;20021;-92
2023/10/19 11:58:50;;;;;;;20.40;6.43;;;;;;;-145.67;100.00;66521.78;5095254;28;20032;-93
2023/10/19 12:01:19;;;;;;;19.05;5.30;;;;;;;-145.67;100.00;66521.78;5061618;28;20066;-92
2023/10/19 12:03:48;;;;;;;18.38;6.20;;;;;;;-145.67;100.00;66521.78;5055082;28;20051;-93
2023/10/19 12:06:18;;;;;;;15.25;4.97;;;;;;;-145.67;100.00;66521.78;5063397;28;20027;-91
2023/10/19 12:08:44;;;;;;;15.15;5.45;;;;;;;-145.67;100.00;66521.78;5064162;28;20028;-93
2023/10/19 12:11:19;;;;;;;14.43;5.63;;;;;;;-145.67;100.00;66521.78;5063880;28;20517;-91
2023/10/19 12:13:45;;;;;;;17.60;5.85;;;;;;;-145.67;100.00;66521.78;5079021;28;20085;-89
2023/10/19 12:16:17;;;;;;;15.32;4.95;;;;;;;-145.67;100.00;66521.78;5079424;28;20036;-90
2023/10/19 12:18:43;;;;;;;18.85;6.07;;;;;;;-145.67;100.00;66521.78;5100894;28;20083;-89
2023/10/19 12:21:12;;;;;;;16.35;6.20;;;;;;;-145.67;100.00;66521.78;5062231;28;20035;-89
2023/10/19 12:23:43;;;;;;;17.13;5.65;;;;;;;-145.67;100.00;66521.78;5051096;28;20105;-89
2023/10/19 12:26:11;;;;;;;14.40;4.82;;;;;;;-145.67;100.00;66521.78;5079074;28;20044;-90
2023/10/19 12:28:41;;;;;;;14.63;5.05;;;;;;;-145.67;100.00;66521.78;5054180;28;20100;-89
2023/10/19 12:31:09;;;;;;;18.02;5.57;;;;;;;-145.67;100.00;66521.78;5069448;28;20114;-89
2023/10/19 12:33:36;;;;;;;16.85;5.72;;;;;;;-145.67;100.00;66521.78;5068519;28;20040;-89
2023/10/19 12:36:18;;;;;;;19.70;5.53;;;;;;;-145.67;100.00;66521.78;5078114;28;20032;-89
2023/10/19 12:38:43;;;;;;;16.50;4.60;;;;;;;-145.67;100.00;66521.78;5095742;28;20028;-89
2023/10/19 12:41:09;;;;;;;16.42;5.53;;;;;;;-145.67;100.00;66521.78;5073473;28;20024;-89
2023/10/19 12:43:35;;;;;;;19.20;7.00;;;;;;;-145.67;100.00;66521.78;5076245;28;20044;-93
2023/10/19 12:46:01;;;;;;;13.73;4.13;;;;;;;-145.67;100.00;66521.78;5042270;28;20035;-93
2023/10/19 12:48:34;;;;;;;16.75;4.65;;;;;;;-145.67;100.00;66521.78;5024717;28;20082;-93
2023/10/19 12:51:01;;;;;;;16.38;4.50;;;;;;;-145.67;100.00;66521.78;5046553;28;20374;-92
2023/10/19 12:53:27;;;;;;;20.63;3.70;;;;;;;-145.67;100.00;66521.78;5078264;28;20028;-94
2023/10/19 12:56:05;;;;;;;19.30;4.75;;;;;;;-145.67;100.00;66521.78;5078281;28;20032;-94
2023/10/19 12:58:34;;;;;;;13.10;4.30;;;;;;;-145.67;100.00;66521.78;5062952;28;20032;-92
2023/10/19 13:01:00;;;;;;;15.05;4.60;;;;;;;-145.67;100.00;66521.78;5077608;28;20475;-92
2023/10/19 13:03:32;;;;;;;19.20;4.53;;;;;;;-145.67;100.00;66521.78;5064521;28;20048;-93
2023/10/19 13:06:14;;;;;;;16.60;6.30;;;;;;;-145.67;100.00;66521.78;5025253;28;20032;-92
2023/10/19 13:09:36;;;;;;;17.58;5.85;;;;;;;-145.67;100.00;66521.78;5042593;28;20029;-94
2023/10/19 13:12:12;;;;;;;19.92;5.65;;;;;;;-145.67;100.00;66521.78;5046077;28;20112;-93
2023/10/19 13:14:38;;;;;;;18.20;6.03;;;;;;;-145.67;100.00;66521.78;5077745;28;20028;-92
2023/10/19 13:17:04;;;;;;;19.23;5.85;;;;;;;-145.67;100.00;66521.78;5057417;28;20063;-92
2023/10/19 13:19:37;;;;;;;18.15;6.05;;;;;;;-145.67;100.00;66521.78;5075075;28;20034;-95
2023/10/19 13:22:07;;;;;;;23.48;6.05;;;;;;;-145.67;100.00;66521.78;5041375;28;20071;-93
2023/10/19 13:24:40;;;;;;;16.90;4.85;;;;;;;-145.67;100.00;66521.78;5051580;28;20016;-93
2023/10/19 13:27:06;;;;;;;23.35;5.15;;;;;;;-145.67;100.00;66521.78;5072300;28;20023;-91
2023/10/19 13:29:37;;;;;;;16.73;5.63;;;;;;;-145.67;100.00;66521.78;5056960;28;20029;-90
2023/10/19 13:32:03;;;;;;;19.63;5.57;;;;;;;-145.67;100.00;66521.78;5065452;28;20094;-91
2023/10/19 13:34:28;;;;;;;16.05;4.65;;;;;;;-145.67;100.00;66521.78;5074534;28;20107;-91
2023/10/19 13:36:55;;;;;;;18.08;4.55;;;;;;;-145.67;100.00;66521.78;5040324;28;20059;-91
2023/10/19 13:39:24;;;;;;;19.38;4.78;;;;;;;-145.67;100.00;66521.78;5085636;28;20374;-91
2023/10/19 13:41:52;;;;;;;14.30;4.53;;;;;;;-145.67;100.00;66521.78;5077400;28;20032;-92
2023/10/19 13:44:20;;;;;;;17.08;5.53;;;;;;;-145.67;100.00;66521.78;5060536;28;20101;-93
2023/10/19 13:46:46;;;;;;;20.23;5.15;;;;;;;-145.67;100.00;66521.78;5077370;28;20020;-92
2023/10/19 13:49:13;;;;;;;15.30;4.70;;;;;;;-145.67;100.00;66521.78;5060498;28;20078;-94
2023/10/19 13:51:39;;;;;;;19.42;4.70;;;;;;;-145.67;100.00;66521.78;5060871;28;20033;-94
2023/10/19 13:54:17;;;;;;;;;;;;;;;;;;;;;
2023/10/19 13:56:52;;;;;;;21.23;5.60;;;;;;;-145.67;100.00;66521.78;5079164;28;20106;-94
2023/10/19 13:59:29;;;;;;;22.73;5.68;;;;;;;-145.67;100.00;66521.78;5060640;28;20062;-93
2023/10/19 14:02:34;;;;;;;26.30;6.25;;;;;;;-145.67;100.00;66521.78;5045192;28;20114;-92
2023/10/19 14:05:24;;;;;;;23.20;5.38;;;;;;;-145.67;100.00;66521.78;5056111;28;20028;-93
2023/10/19 14:08:22;;;;;;;;;;;;;;;;;;;;;
2023/10/19 14:11:12;;;;;;;19.58;6.03;;;;;;;-145.67;100.00;66521.78;5058543;28;20408;-93
2023/10/19 17:19:27;;;;;;;21.30;8.32;;;;;;;-145.67;100.00;66521.78;5916745;22;20135;-93
2023/10/19 17:21:53;;;;;;;22.48;8.25;;;;;;;-145.67;100.00;66521.78;5016008;28;20442;-90
2023/10/19 17:24:18;;;;;;;21.67;7.93;;;;;;;-145.67;100.00;66521.78;5003323;28;20049;-93
2023/10/19 17:26:44;;;;;;;21.50;8.05;;;;;;;-145.67;100.00;66521.78;5033819;28;20112;-90
2023/10/19 17:29:10;;;;;;;19.00;8.50;;;;;;;-145.67;100.00;66521.78;5033614;28;20029;-90
2023/10/19 17:31:39;;;;;;;31.00;12.63;;;;;;;-145.67;100.00;66521.78;5033120;28;20025;-90
2023/10/19 17:34:06;;;;;;;31.10;13.73;;;;;;;-145.67;100.00;66521.78;5033064;28;20406;-90
2023/10/19 17:36:32;;;;;;;21.23;10.05;;;;;;;-145.67;100.00;66521.78;5039148;28;20037;-90
2023/10/19 17:38:58;;;;;;;25.50;9.85;;;;;;;-145.67;100.00;66521.78;5055417;28;20075;-91
2023/10/19 17:41:24;;;;;;;21.08;9.68;;;;;;;-145.67;100.00;66521.78;5025019;28;20020;-91
2023/10/19 17:43:50;;;;;;;18.85;8.52;;;;;;;-145.67;100.00;66521.78;5055050;28;20039;-92
2023/10/19 17:46:16;;;;;;;21.63;9.23;;;;;;;-145.67;100.00;66521.78;5043023;28;20024;-91
2023/10/19 17:48:44;;;;;;;21.63;7.97;;;;;;;-145.67;100.00;66521.78;5057938;28;20038;-91
2023/10/19 17:51:12;;;;;;;20.05;8.90;;;;;;;-145.67;100.00;66521.78;5040975;28;20447;-90
2023/10/19 17:53:39;;;;;;;29.15;10.40;;;;;;;-145.67;100.00;66521.78;5075389;28;20025;-90
2023/10/19 17:56:08;;;;;;;21.90;9.23;;;;;;;-145.67;100.00;66521.78;5057411;28;20021;-92
2023/10/19 17:58:34;;;;;;;19.40;8.10;;;;;;;-145.67;100.00;66521.78;5057067;28;20069;-90
2023/10/19 18:01:09;;;;;;;25.25;8.90;;;;;;;-145.67;100.00;66521.78;5039280;28;20632;-91
2023/10/19 18:03:36;;;;;;;21.17;9.02;;;;;;;-145.67;100.00;66521.78;5043608;28;20043;-91
2023/10/19 18:06:01;;;;;;;19.40;9.82;;;;;;;-145.67;100.00;66521.78;5062573;28;20044;-92
2023/10/19 18:08:28;;;;;;;21.33;9.80;;;;;;;-145.67;100.00;66521.78;5095056;28;20076;-91
2023/10/19 18:10:54;;;;;;;26.58;11.82;;;;;;;-145.67;100.00;66521.78;5083397;28;20020;-92
2023/10/19 18:13:19;;;;;;;22.80;10.63;;;;;;;-145.67;100.00;66521.78;5077844;28;20351;-92
2023/10/19 18:15:48;;;;;;;24.13;9.25;;;;;;;-145.67;100.00;66521.78;5066133;28;20163;-92
2023/10/19 18:18:16;;;;;;;21.20;9.40;;;;;;;-145.67;100.00;66521.78;5057338;28;20043;-91
2023/10/19 18:20:42;;;;;;;22.77;10.10;;;;;;;-145.67;100.00;66521.78;5040256;28;20549;-91
2023/10/19 18:23:09;;;;;;;27.88;11.70;;;;;;;-145.67;100.00;66521.78;5020743;28;20030;-91
2023/10/19 18:25:34;;;;;;;20.08;11.38;;;;;;;-145.67;100.00;66521.78;5021365;28;20025;-92
2023/10/19 18:28:01;;;;;;;24.15;11.45;;;;;;;-145.67;100.00;66521.78;5036636;28;20020;-94
2023/10/19 18:30:27;;;;;;;24.67;11.48;;;;;;;-145.67;100.00;66521.78;5037549;28;20436;-92
2023/10/19 18:32:53;;;;;;;24.00;13.15;;;;;;;-145.67;100.00;66521.78;5050378;28;20025;-91
2023/10/19 18:35:20;;;;;;;21.95;10.98;;;;;;;-145.67;100.00;66521.78;5023737;28;20013;-92
2023/10/19 18:38:11;;;;;;;21.70;10.80;;;;;;;-145.67;100.00;66521.78;5056842;28;20379;-93
2023/10/19 18:40:37;;;;;;;27.55;12.45;;;;;;;-145.67;100.00;66521.78;5002392;28;20131;-92
2023/10/19 18:43:03;;;;;;;21.55;12.20;;;;;;;-145.67;100.00;66521.78;5057024;28;20473;-93
2023/10/19 18:45:29;;;;;;;27.60;11.95;;;;;;;-145.67;100.00;66521.78;5073800;28;20031;-92
2023/10/19 18:47:55;;;;;;;26.38;11.68;;;;;;;-145.67;100.00;66521.78;5055975;28;20020;-93
2023/10/19 18:50:20;;;;;;;25.65;12.82;;;;;;;-145.67;100.00;66521.78;5039701;28;20360;-92
2023/10/19 18:52:46;;;;;;;25.65;12.05;;;;;;;-145.67;100.00;66521.78;5074624;28;20028;-92
2023/10/19 18:55:14;;;;;;;27.50;12.15;;;;;;;-145.67;100.00;66521.78;5039756;28;20119;-90
2023/10/19 18:57:41;;;;;;;24.33;11.93;;;;;;;-145.67;100.00;66521.78;5039557;28;20040;-92
2023/10/19 19:00:07;;;;;;;23.67;11.93;;;;;;;-145.67;100.00;66521.78;5039816;28;20025;-91
2023/10/19 19:02:33;;;;;;;29.08;12.35;;;;;;;-145.67;100.00;66521.78;5039415;28;20024;-92